createdAt,value
2018-03-19T00:01:22.205Z,33.10
2018-03-19T00:03:50.423Z,33.70
2018-03-19T00:06:17.890Z,33.70
2018-03-19T00:08:45.357Z,32.70
2018-03-19T00:11:12.820Z,32.90
2018-03-19T00:13:40.282Z,32.90
2018-03-19T00:16:07.748Z,32.70
2018-03-19T00:18:36.686Z,33.10
2018-03-19T00:21:04.296Z,34.00
2018-03-19T00:23:31.741Z,34.40
2018-03-19T00:25:59.186Z,33.80
2018-03-19T00:28:26.662Z,34.00
2018-03-19T00:30:55.639Z,33.80
2018-03-19T00:33:23.110Z,33.80
2018-03-19T00:35:52.088Z,34.00
2018-03-19T00:38:20.335Z,33.00
2018-03-19T00:40:47.779Z,33.00
2018-03-19T00:43:16.056Z,33.10
2018-03-19T00:45:43.486Z,33.10
2018-03-19T00:48:10.966Z,32.50
2018-03-19T00:50:38.429Z,32.00
2018-03-19T00:53:05.898Z,32.50
2018-03-19T00:55:33.347Z,32.30
2018-03-19T00:58:01.917Z,31.80
2018-03-19T01:00:29.366Z,31.80
2018-03-19T01:02:57.577Z,32.30
2018-03-19T01:05:25.030Z,32.20
2018-03-19T01:07:53.245Z,32.00
2018-03-19T01:10:20.693Z,32.00
2018-03-19T01:12:48.149Z,32.40
2018-03-19T01:15:15.616Z,32.60
2018-03-19T01:17:43.101Z,31.80
2018-03-19T01:20:10.578Z,32.10
2018-03-19T01:22:38.021Z,31.40
2018-03-19T01:25:06.246Z,31.40
2018-03-19T01:27:33.698Z,31.30
2018-03-19T01:30:02.078Z,31.00
2018-03-19T01:32:29.534Z,30.90
2018-03-19T01:34:57.017Z,31.70
2018-03-19T01:37:24.512Z,31.00
2018-03-19T01:39:51.974Z,31.80
2018-03-19T01:42:19.423Z,31.40
2018-03-19T01:44:47.666Z,32.20
2018-03-19T01:47:15.102Z,32.20
2018-03-19T01:49:42.553Z,31.90
2018-03-19T01:52:10.020Z,32.20
2018-03-19T01:54:37.469Z,32.80
2018-03-19T01:57:04.925Z,32.50
2018-03-19T01:59:32.385Z,32.70
2018-03-19T02:02:00.597Z,33.80
2018-03-19T02:04:28.817Z,32.90
2018-03-19T02:06:56.260Z,32.90
2018-03-19T02:09:23.701Z,33.10
2018-03-19T02:11:51.921Z,33.60
2018-03-19T02:14:19.377Z,33.60
2018-03-19T02:16:46.818Z,33.60
2018-03-19T02:19:15.041Z,34.00
2018-03-19T02:21:42.519Z,34.00
2018-03-19T02:24:10.725Z,34.40
2018-03-19T02:26:38.205Z,34.40
2018-03-19T02:29:05.664Z,35.90
2018-03-19T02:31:33.124Z,35.90
2018-03-19T02:34:00.607Z,35.80
2018-03-19T02:36:28.054Z,36.60
2018-03-19T02:38:56.266Z,37.00
2018-03-19T02:41:23.713Z,36.90
2018-03-19T02:43:51.949Z,36.00
2018-03-19T02:46:19.381Z,36.00
2018-03-19T02:48:46.848Z,35.90
2018-03-19T02:51:14.308Z,36.30
2018-03-19T02:53:41.754Z,35.30
2018-03-19T02:56:09.204Z,35.60
2018-03-19T02:58:36.645Z,35.50
2018-03-19T03:01:04.099Z,35.80
2018-03-19T03:03:31.554Z,36.60
2018-03-19T03:05:59.010Z,36.70
2018-03-19T03:08:26.462Z,35.90
2018-03-19T03:10:54.679Z,35.70
2018-03-19T03:13:22.146Z,35.70
2018-03-19T03:15:49.615Z,36.70
2018-03-19T03:18:17.077Z,36.70
2018-03-19T03:20:44.791Z,35.60
2018-03-19T03:23:12.237Z,35.80
2018-03-19T03:25:39.707Z,36.40
2018-03-19T03:28:07.142Z,36.00
2018-03-19T03:30:34.614Z,35.80
2018-03-19T03:33:02.084Z,36.10
2018-03-19T03:35:30.308Z,36.20
2018-03-19T03:37:57.762Z,36.10
2018-03-19T03:40:25.220Z,36.50
2018-03-19T03:42:52.695Z,36.60
2018-03-19T03:45:20.929Z,36.50
2018-03-19T03:47:48.381Z,36.50
2018-03-19T03:50:15.845Z,36.70
2018-03-19T03:52:43.302Z,36.50
2018-03-19T03:55:10.763Z,36.60
2018-03-19T03:57:38.312Z,37.40
2018-03-19T04:00:05.778Z,36.70
2018-03-19T04:02:33.241Z,37.50
2018-03-19T04:05:00.707Z,38.00
2018-03-19T04:07:28.161Z,38.00
2018-03-19T04:09:55.646Z,38.80
2018-03-19T04:12:23.098Z,38.30
2018-03-19T04:14:50.549Z,38.40
2018-03-19T04:17:17.994Z,38.00
2018-03-19T04:19:45.633Z,38.60
2018-03-19T04:22:13.093Z,37.70
2018-03-19T04:24:40.558Z,37.40
2018-03-19T04:27:08.010Z,37.20
2018-03-19T04:29:35.470Z,37.90
2018-03-19T04:32:02.921Z,37.80
2018-03-19T04:34:30.370Z,37.80
2018-03-19T04:36:57.838Z,38.50
2018-03-19T04:39:25.303Z,38.30
2018-03-19T04:41:53.164Z,38.60
2018-03-19T04:44:20.646Z,37.60
2018-03-19T04:46:48.117Z,37.70
2018-03-19T04:49:16.353Z,37.60
2018-03-19T04:51:43.810Z,37.60
2018-03-19T04:54:11.270Z,37.90
2018-03-19T04:56:38.726Z,38.30
2018-03-19T04:59:06.182Z,38.50
2018-03-19T05:01:33.637Z,38.10
2018-03-19T05:04:01.094Z,38.30
2018-03-19T05:06:29.315Z,38.10
2018-03-19T05:08:56.775Z,38.10
2018-03-19T05:11:24.236Z,38.90
2018-03-19T05:13:52.463Z,38.80
2018-03-19T05:16:19.919Z,38.90
2018-03-19T05:18:47.374Z,39.00
2018-03-19T05:21:14.845Z,39.20
2018-03-19T05:23:42.291Z,39.80
2018-03-19T05:26:09.750Z,39.50
2018-03-19T05:28:37.206Z,39.20
2018-03-19T05:31:04.681Z,38.90
2018-03-19T05:33:32.163Z,39.70
2018-03-19T05:35:59.627Z,40.40
2018-03-19T05:38:27.853Z,39.10
2018-03-19T05:40:55.326Z,39.00
2018-03-19T05:43:22.777Z,39.20
2018-03-19T05:45:50.237Z,40.10
2018-03-19T05:48:17.686Z,40.20
2018-03-19T05:50:45.141Z,41.00
2018-03-19T05:53:12.586Z,40.40
2018-03-19T05:55:40.061Z,40.70
2018-03-19T05:58:07.510Z,40.40
2018-03-19T06:00:34.965Z,40.20
2018-03-19T06:03:02.414Z,40.00
2018-03-19T06:05:29.878Z,38.90
2018-03-19T06:07:57.338Z,38.90
2018-03-19T06:10:25.928Z,38.70
2018-03-19T06:12:53.378Z,38.60
2018-03-19T06:15:20.866Z,38.80
2018-03-19T06:17:49.831Z,38.10
2018-03-19T06:20:17.290Z,38.10
2018-03-19T06:22:44.744Z,38.70
2018-03-19T06:25:12.202Z,39.10
2018-03-19T06:27:39.658Z,38.90
2018-03-19T06:30:07.895Z,38.60
2018-03-19T06:32:36.110Z,39.60
2018-03-19T06:35:03.572Z,39.50
2018-03-19T06:37:31.018Z,39.00
2018-03-19T06:39:58.471Z,39.10
2018-03-19T06:42:25.913Z,38.90
2018-03-19T06:44:53.361Z,38.60
2018-03-19T06:47:20.824Z,39.20
2018-03-19T06:49:49.064Z,37.60
2018-03-19T06:52:16.506Z,37.60
2018-03-19T06:54:43.970Z,37.00
2018-03-19T06:57:11.469Z,37.10
2018-03-19T06:59:38.952Z,37.70
2018-03-19T07:02:06.389Z,37.70
2018-03-19T07:04:33.889Z,37.40
2018-03-19T07:07:01.370Z,37.70
2018-03-19T07:09:28.825Z,35.50
2018-03-19T07:11:56.386Z,34.60
2018-03-19T07:14:23.858Z,35.30
2018-03-19T07:16:52.079Z,34.00
2018-03-19T07:19:19.575Z,33.90
2018-03-19T07:21:47.034Z,33.40
2018-03-19T07:24:15.249Z,32.20
2018-03-19T07:26:43.482Z,31.50
2018-03-19T07:29:10.944Z,31.50
2018-03-19T07:31:38.411Z,32.00
2018-03-19T07:34:05.860Z,32.40
2018-03-19T07:36:33.318Z,31.10
2018-03-19T07:39:02.278Z,30.20
2018-03-19T07:41:29.737Z,30.10
2018-03-19T07:43:57.183Z,29.30
2018-03-19T07:46:24.682Z,29.20
2018-03-19T07:48:52.126Z,28.50
2018-03-19T07:51:19.591Z,30.00
2018-03-19T07:53:47.058Z,29.90
2018-03-19T07:56:15.290Z,29.30
2018-03-19T07:58:42.735Z,29.30
2018-03-19T08:01:10.195Z,29.10
2018-03-19T08:03:37.630Z,29.10
2018-03-19T08:06:05.081Z,28.40
2018-03-19T08:08:32.526Z,27.20
2018-03-19T08:11:00.747Z,28.60
2018-03-19T08:13:28.195Z,28.60
2018-03-19T08:15:55.670Z,28.40
2018-03-19T08:18:23.119Z,27.90
2018-03-19T08:20:50.594Z,27.10
2018-03-19T08:23:18.042Z,26.50
2018-03-19T08:25:45.498Z,26.10
2018-03-19T08:28:13.711Z,25.60
2018-03-19T08:30:41.182Z,25.60
2018-03-19T08:33:09.398Z,26.10
2018-03-19T08:35:36.854Z,26.10
2018-03-19T08:38:05.070Z,25.80
2018-03-19T08:40:32.538Z,25.80
2018-03-19T08:43:00.894Z,25.70
2018-03-19T08:45:28.361Z,25.70
2018-03-19T08:47:55.818Z,24.60
2018-03-19T08:50:23.290Z,22.10
2018-03-19T08:52:51.518Z,21.30
2018-03-19T08:55:18.990Z,21.30
2018-03-19T08:57:46.458Z,22.60
2018-03-19T09:00:13.939Z,22.10
2018-03-19T09:02:42.165Z,22.90
2018-03-19T09:05:09.618Z,22.90
2018-03-19T09:07:37.074Z,22.90
2018-03-19T09:10:04.597Z,23.40
2018-03-19T09:12:31.993Z,22.40
2018-03-19T09:14:59.450Z,22.10
2018-03-19T09:17:26.909Z,21.60
2018-03-19T09:19:54.386Z,21.90
2018-03-19T09:22:22.633Z,22.10
2018-03-19T09:24:50.098Z,22.00
2018-03-19T09:27:17.615Z,21.60
2018-03-19T09:29:45.851Z,21.80
2018-03-19T09:32:13.327Z,21.80
2018-03-19T09:34:40.786Z,21.40
2018-03-19T09:37:08.265Z,20.50
2018-03-19T09:39:35.738Z,19.70
2018-03-19T09:42:03.194Z,20.40
2018-03-19T09:44:31.417Z,18.20
2018-03-19T09:46:59.634Z,18.50
2018-03-19T09:49:27.866Z,18.00
2018-03-19T09:51:55.338Z,17.90
2018-03-19T09:54:22.790Z,17.60
2018-03-19T09:56:50.246Z,19.00
2018-03-19T09:59:18.462Z,17.80
2018-03-19T10:01:45.918Z,17.80
2018-03-19T10:04:13.369Z,17.30
2018-03-19T10:06:41.606Z,17.50
2018-03-19T10:09:09.058Z,17.40
2018-03-19T10:11:36.526Z,16.50
2018-03-19T10:14:04.002Z,16.10
2018-03-19T10:16:31.459Z,17.20
2018-03-19T10:18:58.974Z,18.30
2018-03-19T10:21:26.455Z,15.50
2018-03-19T10:23:53.905Z,15.80
2018-03-19T10:26:21.417Z,15.80
2018-03-19T10:28:48.850Z,16.70
2018-03-19T10:31:16.310Z,17.20
2018-03-19T10:33:44.546Z,15.30
2018-03-19T10:36:12.047Z,15.10
2018-03-19T10:38:40.358Z,14.90
2018-03-19T10:41:07.936Z,14.70
2018-03-19T10:43:36.188Z,15.60
2018-03-19T10:46:04.465Z,16.30
2018-03-19T10:48:31.950Z,16.30
2018-03-19T10:50:59.460Z,14.20
2018-03-19T10:53:26.934Z,14.20
2018-03-19T10:55:55.202Z,14.90
2018-03-19T10:58:23.601Z,14.80
2018-03-19T11:00:51.144Z,14.70
2018-03-19T11:03:25.231Z,15.40
2018-03-19T11:05:56.272Z,16.40
2018-03-19T11:08:30.206Z,15.50
2018-03-19T11:10:57.682Z,15.50
2018-03-19T11:13:25.202Z,15.20
2018-03-19T11:15:53.677Z,15.30
2018-03-19T11:18:21.130Z,15.30
2018-03-19T11:20:48.655Z,14.60
2018-03-19T11:23:16.140Z,14.90
2018-03-19T11:25:43.685Z,14.00
2018-03-19T11:28:11.141Z,13.40
2018-03-19T11:30:38.628Z,11.90
2018-03-19T11:33:06.100Z,10.50
2018-03-19T11:35:34.408Z,10.70
2018-03-19T11:38:01.891Z,10.70
2018-03-19T11:40:29.346Z,10.80
2018-03-19T11:42:56.805Z,11.00
2018-03-19T11:45:24.266Z,9.70
2018-03-19T11:47:51.735Z,8.70
2018-03-19T11:50:19.177Z,9.80
2018-03-19T11:52:46.637Z,9.60
2018-03-19T11:55:14.103Z,8.40
2018-03-19T11:57:41.602Z,8.50
2018-03-19T12:00:10.154Z,8.10
2018-03-19T12:02:38.415Z,8.40
2018-03-19T12:05:05.874Z,8.50
2018-03-19T12:07:33.358Z,9.00
2018-03-19T12:10:01.633Z,8.80
2018-03-19T12:12:29.858Z,8.20
2018-03-19T12:14:57.313Z,8.20
2018-03-19T12:17:24.797Z,7.80
2018-03-19T12:19:52.251Z,7.30
2018-03-19T12:22:19.726Z,8.40
2018-03-19T12:24:47.247Z,9.10
2018-03-19T12:27:14.753Z,9.90
2018-03-19T12:29:42.231Z,9.30
2018-03-19T12:32:10.448Z,8.70
2018-03-19T12:34:37.892Z,8.20
2018-03-19T12:37:05.345Z,7.90
2018-03-19T12:39:32.972Z,7.80
2018-03-19T12:42:01.219Z,9.50
2018-03-19T12:44:28.661Z,9.60
2018-03-19T12:46:56.150Z,10.00
2018-03-19T12:49:23.598Z,9.20
2018-03-19T12:51:51.062Z,10.20
2018-03-19T12:54:18.505Z,10.80
2018-03-19T12:56:45.983Z,8.80
2018-03-19T12:59:13.410Z,8.90
2018-03-19T13:01:40.871Z,9.30
2018-03-19T13:04:08.321Z,9.10
2018-03-19T13:06:35.776Z,9.00
2018-03-19T13:09:03.234Z,9.60
2018-03-19T13:11:30.677Z,9.40
2018-03-19T13:13:58.162Z,8.80
2018-03-19T13:16:25.601Z,8.40
2018-03-19T13:18:53.058Z,9.30
2018-03-19T13:21:20.516Z,7.40
2018-03-19T13:23:47.953Z,6.40
2018-03-19T13:26:15.427Z,7.70
2018-03-19T13:28:42.900Z,6.60
2018-03-19T13:31:10.334Z,6.00
2018-03-19T13:33:37.787Z,6.00
2018-03-19T13:36:05.285Z,6.50
2018-03-19T13:38:32.740Z,6.50
2018-03-19T13:41:00.186Z,7.40
2018-03-19T13:43:27.657Z,7.80
2018-03-19T13:45:55.100Z,7.20
2018-03-19T13:48:22.548Z,7.00
2018-03-19T13:50:50.001Z,6.70
2018-03-19T13:53:17.457Z,7.00
2018-03-19T13:55:44.918Z,6.70
2018-03-19T13:58:12.357Z,7.60
2018-03-19T14:00:39.811Z,8.00
2018-03-19T14:03:07.281Z,7.50
2018-03-19T14:05:35.184Z,8.40
2018-03-19T14:08:03.948Z,7.50
2018-03-19T14:10:31.394Z,7.40
2018-03-19T14:12:58.849Z,7.60
2018-03-19T14:15:26.301Z,8.20
2018-03-19T14:17:53.760Z,7.50
2018-03-19T14:20:21.200Z,8.30
2018-03-19T14:22:48.682Z,8.20
2018-03-19T14:25:16.133Z,8.80
2018-03-19T14:27:43.725Z,8.10
2018-03-19T14:30:11.086Z,8.60
2018-03-19T14:32:38.530Z,8.20
2018-03-19T14:35:05.973Z,8.20
2018-03-19T14:37:33.425Z,8.10
2018-03-19T14:40:00.874Z,8.30
2018-03-19T14:42:28.345Z,8.10
2018-03-19T14:44:55.786Z,7.20
2018-03-19T14:47:23.241Z,7.80
2018-03-19T14:49:50.694Z,7.90
2018-03-19T14:52:18.200Z,8.30
2018-03-19T14:54:45.635Z,9.50
2018-03-19T14:57:13.087Z,9.50
2018-03-19T14:59:40.545Z,10.50
2018-03-19T15:02:08.001Z,11.00
2018-03-19T15:04:35.605Z,11.20
2018-03-19T15:07:02.992Z,12.50
2018-03-19T15:09:30.469Z,13.50
2018-03-19T15:11:57.917Z,13.20
2018-03-19T15:14:25.389Z,13.50
2018-03-19T15:16:52.845Z,13.60
2018-03-19T15:19:20.299Z,14.00
2018-03-19T15:21:47.749Z,14.40
2018-03-19T15:24:15.213Z,15.10
2018-03-19T15:26:42.654Z,15.20
2018-03-19T15:29:10.118Z,14.90
2018-03-19T15:31:37.572Z,15.50
2018-03-19T15:34:05.074Z,14.90
2018-03-19T15:36:32.509Z,15.20
2018-03-19T15:38:59.970Z,14.70
2018-03-19T15:41:27.421Z,15.10
2018-03-19T15:43:54.904Z,14.80
2018-03-19T15:46:22.341Z,14.90
2018-03-19T15:48:49.810Z,15.00
2018-03-19T15:51:17.311Z,15.40
2018-03-19T15:53:45.666Z,15.30
2018-03-19T15:56:13.117Z,15.20
2018-03-19T15:58:40.584Z,15.90
2018-03-19T16:01:08.037Z,15.60
2018-03-19T16:03:35.493Z,15.60
2018-03-19T16:06:04.855Z,15.90
2018-03-19T16:08:32.309Z,16.50
2018-03-19T16:10:59.770Z,16.90
2018-03-19T16:13:27.242Z,17.30
2018-03-19T16:15:54.690Z,17.40
2018-03-19T16:18:22.152Z,17.70
2018-03-19T16:20:49.599Z,18.60
2018-03-19T16:23:17.057Z,17.90
2018-03-19T16:25:44.505Z,17.90
2018-03-19T16:28:11.977Z,18.40
2018-03-19T16:30:39.425Z,18.80
2018-03-19T16:33:06.892Z,18.70
2018-03-19T16:35:34.353Z,19.60
2018-03-19T16:38:01.821Z,19.80
2018-03-19T16:40:29.270Z,20.20
2018-03-19T16:42:56.724Z,20.30
2018-03-19T16:45:24.182Z,20.40
2018-03-19T16:47:51.645Z,20.40
2018-03-19T16:50:19.089Z,20.80
2018-03-19T16:52:46.537Z,21.80
2018-03-19T16:55:14.001Z,21.30
2018-03-19T16:57:41.478Z,21.40
2018-03-19T17:00:08.936Z,21.80
2018-03-19T17:02:36.388Z,21.80
2018-03-19T17:05:03.845Z,22.10
2018-03-19T17:07:31.298Z,22.50
2018-03-19T17:09:58.761Z,23.00
2018-03-19T17:12:26.223Z,23.50
2018-03-19T17:14:53.690Z,22.70
2018-03-19T17:17:21.149Z,22.90
2018-03-19T17:19:48.609Z,23.00
2018-03-19T17:22:16.057Z,23.40
2018-03-19T17:24:43.524Z,23.50
2018-03-19T17:27:10.976Z,23.50
2018-03-19T17:29:38.434Z,23.70
2018-03-19T17:32:05.894Z,23.70
2018-03-19T17:34:33.357Z,24.20
2018-03-19T17:37:00.813Z,24.50
2018-03-19T17:39:28.265Z,24.50
2018-03-19T17:41:55.705Z,24.40
2018-03-19T17:44:23.172Z,24.70
2018-03-19T17:46:50.618Z,24.80
2018-03-19T17:49:18.902Z,24.80
2018-03-19T17:51:46.365Z,25.30
2018-03-19T17:54:13.846Z,26.10
2018-03-19T17:56:41.277Z,26.50
2018-03-19T17:59:08.737Z,26.80
2018-03-19T18:01:36.185Z,27.00
2018-03-19T18:04:03.639Z,27.20
2018-03-19T18:06:31.082Z,27.00
2018-03-19T18:08:58.538Z,27.10
2018-03-19T18:11:25.985Z,27.30
2018-03-19T18:13:53.453Z,27.50
2018-03-19T18:16:20.920Z,27.80
2018-03-19T18:18:48.364Z,27.80
2018-03-19T18:21:15.804Z,27.80
2018-03-19T18:23:43.259Z,27.70
2018-03-19T18:26:10.710Z,28.10
2018-03-19T18:28:38.942Z,28.10
2018-03-19T18:31:06.387Z,28.00
2018-03-19T18:33:33.829Z,28.50
2018-03-19T18:36:01.279Z,28.40
2018-03-19T18:38:28.740Z,28.20
2018-03-19T18:40:56.195Z,28.60
2018-03-19T18:43:23.654Z,28.50
2018-03-19T18:45:51.118Z,28.70
2018-03-19T18:48:18.559Z,28.90
2018-03-19T18:50:46.072Z,29.30
2018-03-19T18:53:13.523Z,28.90
2018-03-19T18:55:40.974Z,28.80
2018-03-19T18:58:08.430Z,28.70
2018-03-19T19:00:35.889Z,28.80
2018-03-19T19:03:03.327Z,28.70
2018-03-19T19:05:30.785Z,28.90
2018-03-19T19:07:58.243Z,28.90
2018-03-19T19:10:25.702Z,29.30
2018-03-19T19:12:53.154Z,29.20
2018-03-19T19:15:20.647Z,29.20
2018-03-19T19:17:48.089Z,29.10
2018-03-19T19:20:15.544Z,29.10
2018-03-19T19:22:42.990Z,29.20
2018-03-19T19:25:10.457Z,29.20
2018-03-19T19:27:37.938Z,29.20
2018-03-19T19:30:05.382Z,29.40
2018-03-19T19:32:32.833Z,29.60
2018-03-19T19:35:00.322Z,29.50
2018-03-19T19:37:27.772Z,29.40
2018-03-19T19:39:55.235Z,29.30
2018-03-19T19:42:22.674Z,29.40
2018-03-19T19:44:50.134Z,29.20
2018-03-19T19:47:17.589Z,29.30
2018-03-19T19:49:45.048Z,28.90
2018-03-19T19:52:12.490Z,29.20
2018-03-19T19:54:39.946Z,28.90
2018-03-19T19:57:07.394Z,29.10
2018-03-19T19:59:34.845Z,29.00
2018-03-19T20:02:02.293Z,29.00
2018-03-19T20:04:29.749Z,29.00
2018-03-19T20:06:57.241Z,29.20
2018-03-19T20:09:24.787Z,29.00
2018-03-19T20:11:52.297Z,28.90
2018-03-19T20:14:19.779Z,29.00
2018-03-19T20:16:47.233Z,29.20
2018-03-19T20:19:14.704Z,29.20
2018-03-19T20:21:42.206Z,29.00
2018-03-19T20:24:09.657Z,29.00
2018-03-19T20:26:37.104Z,28.90
2018-03-19T20:29:04.566Z,28.80
2018-03-19T20:31:32.016Z,29.00
2018-03-19T20:33:59.474Z,28.90
2018-03-19T20:36:26.930Z,28.70
2018-03-19T20:38:54.379Z,28.60
2018-03-19T20:41:22.506Z,28.70
2018-03-19T20:43:49.990Z,28.60
2018-03-19T20:46:17.458Z,28.60
2018-03-19T20:48:44.893Z,28.40
2018-03-19T20:51:12.353Z,28.30
2018-03-19T20:53:39.822Z,28.00
2018-03-19T20:56:07.345Z,28.10
2018-03-19T20:58:35.625Z,28.40
2018-03-19T21:01:03.849Z,28.40
2018-03-19T21:03:31.306Z,28.40
2018-03-19T21:05:58.804Z,28.30
2018-03-19T21:08:26.233Z,28.50
2018-03-19T21:10:53.719Z,28.50
2018-03-19T21:13:21.954Z,29.00
2018-03-19T21:15:49.414Z,29.00
2018-03-19T21:18:16.949Z,29.20
2018-03-19T21:20:44.423Z,29.40
2018-03-19T21:23:11.879Z,30.00
2018-03-19T21:25:39.365Z,30.50
2018-03-19T21:28:06.860Z,31.70
2018-03-19T21:30:34.353Z,31.70
2018-03-19T21:33:01.809Z,32.20
2018-03-19T21:35:29.270Z,32.40
2018-03-19T21:40:30.624Z,33.40
2018-03-19T21:42:58.196Z,33.50
2018-03-19T21:45:25.676Z,33.70
2018-03-19T21:47:53.204Z,33.80
2018-03-19T21:50:20.678Z,34.00
2018-03-19T21:52:48.125Z,34.40
2018-03-19T21:55:15.662Z,34.90
2018-03-19T21:57:43.144Z,34.80
2018-03-19T22:00:10.601Z,34.70
2018-03-19T22:02:38.063Z,34.50
2018-03-19T22:05:05.578Z,34.60
2018-03-19T22:07:33.055Z,34.80
2018-03-19T22:10:00.558Z,34.60
2018-03-19T22:12:28.025Z,34.50
2018-03-19T22:14:55.492Z,34.90
2018-03-19T22:17:22.930Z,34.50
2018-03-19T22:19:50.386Z,34.80
2018-03-19T22:22:17.835Z,35.20
2018-03-19T22:24:45.341Z,35.10
2018-03-19T22:27:13.542Z,34.80
2018-03-19T22:29:41.015Z,34.80
2018-03-19T22:32:08.535Z,34.60
2018-03-19T22:34:36.751Z,35.20
2018-03-19T22:37:04.205Z,35.20
2018-03-19T22:39:31.654Z,35.20
2018-03-19T22:41:59.106Z,35.60
2018-03-19T22:44:26.549Z,35.60
2018-03-19T22:46:54.001Z,35.60
2018-03-19T22:49:21.453Z,36.30
2018-03-19T22:51:49.661Z,36.10
2018-03-19T22:54:17.113Z,36.10
2018-03-19T22:56:44.624Z,36.20
2018-03-19T22:59:13.121Z,36.90
2018-03-19T23:01:41.334Z,36.80
2018-03-19T23:04:09.108Z,36.80
2018-03-19T23:06:36.660Z,36.70
2018-03-19T23:09:04.110Z,37.00
2018-03-19T23:11:31.561Z,37.10
2018-03-19T23:13:59.026Z,37.80
2018-03-19T23:16:26.494Z,37.80
2018-03-19T23:18:53.941Z,38.10
2018-03-19T23:21:21.394Z,38.40
2018-03-19T23:23:48.838Z,38.60
2018-03-19T23:26:16.368Z,39.00
2018-03-19T23:28:43.805Z,39.50
2018-03-19T23:31:11.286Z,39.50
2018-03-19T23:33:39.500Z,39.60
2018-03-19T23:36:06.975Z,39.60
2018-03-19T23:38:34.416Z,39.80
2018-03-19T23:41:01.869Z,40.30
2018-03-19T23:43:29.324Z,40.80
2018-03-19T23:45:56.787Z,41.00
2018-03-19T23:48:24.242Z,40.80
2018-03-19T23:50:51.718Z,41.10
2018-03-19T23:53:19.175Z,41.80
2018-03-19T23:55:46.686Z,42.10
2018-03-19T23:58:14.913Z,42.60
